Date,TemperatureHighF,TemperatureAvgF,TemperatureLowF,DewpointHighF,DewpointAvgF,DewpointLowF,HumidityHigh,HumidityAvg,HumidityLow,PressureMaxIn,PressureMinIn,WindSpeedMaxMPH,WindSpeedAvgMPH,GustSpeedMaxMPH,PrecipitationSumIn
2013-10-1,84.1,63.5,52.2,61.7,16.1,-2.8,49,13,1,29.91,29.81,0,0,0,0.00
2013-10-2,80.5,63.0,50.2,54.9,11.1,-12.0,46,8,1,29.96,29.80,0,0,0,0.00
2013-10-3,83.2,58.6,45.0,59.1,10.5,-13.4,49,11,1,30.03,29.92,0,0,0,0.00
2013-10-4,64.8,59.8,55.8,6.9,3.1,0.1,1,1,1,29.95,29.88,0,0,0,0.09
2013-10-5,65.7,61.1,59.6,7.6,4.2,3.0,1,1,1,29.99,29.93,0,0,0,0.05
2013-10-6,70.9,63.5,58.3,11.7,6.0,2.0,1,1,1,29.93,29.68,0,0,0,0.13
2013-10-7,71.1,60.7,50.9,30.8,3.9,-14.3,25,1,1,29.90,29.52,0,0,0,0.54
2013-10-8,72.7,52.9,40.3,51.1,7.4,-11.9,51,13,1,30.24,29.90,0,0,0,0.00
2013-10-9,81.0,52.8,35.8,56.8,9.2,-22.9,50,15,1,30.31,30.19,0,0,0,0.00
2013-10-10,74.0,49.6,37.1,51.9,4.0,-14.5,50,12,1,30.18,30.04,0,0,0,0.00
2013-10-11,44.1,41.9,41.0,-9.1,-10.7,-11.3,1,1,1,30.04,30.01,0,0,0,0.00
2013-10-12,86.0,57.4,39.1,58.9,15.2,-13.2,51,17,1,30.10,30.01,0,0,0,0.00
2013-10-17,62.8,54.6,52.0,23.1,0.1,-2.9,22,2,1,29.62,29.53,0,0,0,0.38
2013-10-18,64.4,52.3,42.5,44.2,8.3,-10.3,52,15,1,29.80,29.57,0,0,0,0.02
2013-10-19,69.7,54.2,43.7,50.0,12.1,-9.4,53,18,1,29.78,29.53,0,0,0,0.10
2013-10-20,61.9,49.3,40.0,42.6,8.9,-12.2,53,19,1,29.88,29.61,0,0,0,0.00
2013-10-21,64.1,55.6,43.9,44.7,24.6,-9.2,54,33,1,29.88,29.66,0,0,0,0.00
2013-10-22,59.0,48.9,40.3,40.5,13.8,-30.0,55,26,1,29.72,29.61,0,0,0,0.09
2013-10-23,52.9,41.5,35.3,32.3,-1.1,-29.1,50,14,1,29.71,29.56,0,0,0,0.20
2013-10-24,51.5,40.2,34.6,33.5,-5.2,-23.5,53,10,1,29.86,29.64,0,0,0,0.19
2013-10-25,50.8,43.0,34.9,30.3,3.3,-38.0,51,19,1,30.05,29.86,0,0,0,0.09
2013-10-26,48.2,44.8,35.3,31.5,17.9,-15.9,54,37,1,30.00,29.67,0,0,0,0.00
2013-10-27,50.2,43.7,38.9,30.3,-2.6,-17.8,52,11,1,29.94,29.67,0,0,0,0.13
2013-10-28,52.4,43.4,31.0,33.9,14.8,-12.6,56,34,1,30.29,29.91,0,0,0,0.00
2013-10-29,53.5,38.7,25.2,34.7,10.6,-23.8,54,34,1,30.36,30.19,0,0,0,0.00
2013-10-30,63.7,44.8,37.1,43.6,4.6,-14.7,52,18,1,30.19,30.01,0,0,0,0.02
2013-10-31,59.2,51.2,39.2,2.5,-3.5,-12.8,1,1,1,30.01,29.34,0,0,0,0.49